createdAt,value
2023-05-13T00:01:00.113Z,1.93
2023-05-13T00:03:28.546Z,2.17
2023-05-13T00:05:56.732Z,2.37
2023-05-13T00:08:24.128Z,2.23
2023-05-13T00:10:51.568Z,2.30
2023-05-13T00:13:18.896Z,2.23
2023-05-13T00:15:46.250Z,2.43
2023-05-13T00:18:14.889Z,2.47
2023-05-13T00:20:42.279Z,2.37
2023-05-13T00:23:09.948Z,2.57
2023-05-13T00:25:37.482Z,2.50
2023-05-13T00:28:04.974Z,2.50
2023-05-13T00:30:32.393Z,2.23
2023-05-13T00:32:59.899Z,2.37
2023-05-13T00:35:28.681Z,2.30
2023-05-13T00:37:56.860Z,2.50
2023-05-13T00:40:25.516Z,2.43
2023-05-13T00:42:55.908Z,2.90
2023-05-13T00:45:23.283Z,2.40
2023-05-13T00:47:50.904Z,2.90
2023-05-13T00:50:18.420Z,2.27
2023-05-13T00:52:48.848Z,2.83
2023-05-13T00:55:16.373Z,2.97
2023-05-13T00:57:43.865Z,2.50
2023-05-13T01:00:12.703Z,2.37
2023-05-13T01:02:42.496Z,2.50
2023-05-13T01:05:13.784Z,2.63
2023-05-13T01:07:45.533Z,2.40
2023-05-13T01:10:16.762Z,2.37
2023-05-13T01:12:45.863Z,2.63
2023-05-13T01:15:15.093Z,2.57
2023-05-13T01:17:45.172Z,2.37
2023-05-13T01:20:13.024Z,2.77
2023-05-13T01:22:41.697Z,2.67
2023-05-13T01:25:09.643Z,2.53
2023-05-13T01:27:37.570Z,2.63
2023-05-13T01:30:06.898Z,2.50
2023-05-13T01:32:34.836Z,2.60
2023-05-13T01:35:02.486Z,2.50
2023-05-13T01:37:31.100Z,2.63
2023-05-13T01:40:00.269Z,2.27
2023-05-13T01:42:29.193Z,2.50
2023-05-13T01:44:56.566Z,2.87
2023-05-13T01:47:23.995Z,2.73
2023-05-13T01:49:51.467Z,2.40
2023-05-13T01:52:19.422Z,3.10
2023-05-13T01:54:47.300Z,2.30
2023-05-13T01:57:16.880Z,2.70
2023-05-13T01:59:44.374Z,2.83
2023-05-13T02:02:11.917Z,2.70
2023-05-13T02:04:39.334Z,2.70
2023-05-13T02:07:06.730Z,2.67
2023-05-13T02:09:35.210Z,2.67
2023-05-13T02:12:02.553Z,2.67
2023-05-13T02:14:31.526Z,2.80
2023-05-13T02:16:58.943Z,3.00
2023-05-13T02:19:26.456Z,2.73
2023-05-13T02:21:53.827Z,2.77
2023-05-13T02:24:21.280Z,2.57
2023-05-13T02:26:48.663Z,2.80
2023-05-13T02:29:16.103Z,3.00
2023-05-13T02:31:44.867Z,2.70
2023-05-13T02:34:12.316Z,2.57
2023-05-13T02:36:39.665Z,2.60
2023-05-13T02:39:07.039Z,2.67
2023-05-13T02:41:34.712Z,2.33
2023-05-13T02:44:02.081Z,2.17
2023-05-13T02:46:29.943Z,2.80
2023-05-13T02:48:59.278Z,2.47
2023-05-13T02:51:31.613Z,2.53
2023-05-13T02:53:59.342Z,2.70
2023-05-13T02:56:28.084Z,2.80
2023-05-13T02:58:58.186Z,2.80
2023-05-13T03:01:26.611Z,2.73
2023-05-13T03:03:54.334Z,2.97
2023-05-13T03:06:22.999Z,2.60
2023-05-13T03:08:50.415Z,2.70
2023-05-13T03:11:17.892Z,2.57
2023-05-13T03:13:45.611Z,2.80
2023-05-13T03:16:14.735Z,2.67
2023-05-13T03:18:42.243Z,2.50
2023-05-13T03:21:10.349Z,2.67
2023-05-13T03:23:39.792Z,2.80
2023-05-13T03:26:07.198Z,2.80
2023-05-13T03:28:34.937Z,3.13
2023-05-13T03:31:03.345Z,2.60
2023-05-13T03:33:33.697Z,2.50
2023-05-13T03:36:01.405Z,2.73
2023-05-13T03:38:32.157Z,2.30
2023-05-13T03:41:01.241Z,2.80
2023-05-13T03:43:29.720Z,2.67
2023-05-13T03:46:01.859Z,2.40
2023-05-13T03:48:29.322Z,2.73
2023-05-13T03:50:59.097Z,2.50
2023-05-13T03:53:26.872Z,2.63
2023-05-13T03:55:55.654Z,2.80
2023-05-13T03:58:24.411Z,2.97
2023-05-13T04:00:51.802Z,2.57
2023-05-13T04:03:19.313Z,2.80
2023-05-13T04:05:47.519Z,3.07
2023-05-13T04:08:15.014Z,3.07
2023-05-13T04:10:43.727Z,3.00
2023-05-13T04:13:11.082Z,3.47
2023-05-13T04:15:39.863Z,5.43
2023-05-13T04:18:07.581Z,5.10
2023-05-13T04:20:35.318Z,5.50
2023-05-13T04:23:02.825Z,6.60
2023-05-13T04:25:30.248Z,7.23
2023-05-13T04:27:57.580Z,5.80
2023-05-13T04:30:30.529Z,6.57
2023-05-13T04:32:59.393Z,5.90
2023-05-13T04:35:27.275Z,5.30
2023-05-13T04:37:58.803Z,5.37
2023-05-13T04:40:26.475Z,5.23
2023-05-13T04:42:56.709Z,4.73
2023-05-13T04:45:28.806Z,4.97
2023-05-13T04:47:58.329Z,4.90
2023-05-13T04:50:27.426Z,4.43
2023-05-13T04:52:56.437Z,4.70
2023-05-13T04:55:26.005Z,4.73
2023-05-13T04:57:55.030Z,4.03
2023-05-13T05:00:23.025Z,4.13
2023-05-13T05:02:52.086Z,3.97
2023-05-13T05:05:19.552Z,4.30
2023-05-13T05:07:48.806Z,3.60
2023-05-13T05:10:16.975Z,3.67
2023-05-13T05:12:51.544Z,4.10
2023-05-13T05:15:19.078Z,3.77
2023-05-13T05:17:49.286Z,4.80
2023-05-13T05:20:17.086Z,3.63
2023-05-13T05:22:46.331Z,4.27
2023-05-13T05:25:15.322Z,4.40
2023-05-13T05:27:42.885Z,4.00
2023-05-13T05:30:11.680Z,3.73
2023-05-13T05:32:40.082Z,3.90
2023-05-13T05:35:08.542Z,3.90
2023-05-13T05:37:36.504Z,3.53
2023-05-13T05:40:04.728Z,3.87
2023-05-13T05:42:35.598Z,3.87
2023-05-13T05:45:03.543Z,4.30
2023-05-13T05:47:31.099Z,4.37
2023-05-13T05:49:59.663Z,3.63
2023-05-13T05:52:27.000Z,3.97
2023-05-13T05:54:54.361Z,4.30
2023-05-13T05:57:21.753Z,3.83
2023-05-13T05:59:51.578Z,4.40
2023-05-13T06:02:19.070Z,4.40
2023-05-13T06:04:46.571Z,3.50
2023-05-13T06:07:14.437Z,3.73
2023-05-13T06:09:41.853Z,3.37
2023-05-13T06:12:09.590Z,3.50
2023-05-13T06:14:37.005Z,3.40
2023-05-13T06:17:05.951Z,2.83
2023-05-13T06:19:33.298Z,3.07
2023-05-13T06:22:03.286Z,3.03
2023-05-13T06:24:31.738Z,3.13
2023-05-13T06:26:59.096Z,4.20
2023-05-13T06:29:26.459Z,9.67
2023-05-13T06:31:54.406Z,3.60
2023-05-13T06:34:23.080Z,2.90
2023-05-13T06:36:50.649Z,2.80
2023-05-13T06:39:18.072Z,2.60
2023-05-13T06:41:45.696Z,2.63
2023-05-13T06:44:16.423Z,2.60
2023-05-13T06:46:47.139Z,2.40
2023-05-13T06:49:14.494Z,2.70
2023-05-13T06:51:43.200Z,2.50
2023-05-13T06:54:10.666Z,2.50
2023-05-13T06:56:38.038Z,2.33
2023-05-13T06:59:05.365Z,2.50
2023-05-13T07:01:32.945Z,2.57
2023-05-13T07:04:00.340Z,2.73
2023-05-13T07:06:27.680Z,2.60
2023-05-13T07:08:57.376Z,2.50
2023-05-13T07:11:24.916Z,2.60
2023-05-13T07:13:52.692Z,2.40
2023-05-13T07:16:20.045Z,2.17
2023-05-13T07:18:47.714Z,2.10
2023-05-13T07:21:16.290Z,2.20
2023-05-13T07:23:44.754Z,2.20
2023-05-13T07:26:13.817Z,1.83
2023-05-13T07:28:41.254Z,2.13
2023-05-13T07:31:08.755Z,2.10
2023-05-13T07:33:36.659Z,2.10
2023-05-13T07:36:04.150Z,1.90
2023-05-13T07:38:31.465Z,1.90
2023-05-13T07:40:58.882Z,1.90
2023-05-13T07:43:27.941Z,2.13
2023-05-13T07:45:55.339Z,2.00
2023-05-13T07:48:24.518Z,1.87
2023-05-13T07:50:51.914Z,1.80
2023-05-13T07:53:19.899Z,2.10
2023-05-13T07:55:47.427Z,1.70
2023-05-13T07:58:14.828Z,2.00
2023-05-13T08:00:43.491Z,1.70
2023-05-13T08:03:10.936Z,1.60
2023-05-13T08:05:38.425Z,2.03
2023-05-13T08:08:06.440Z,1.83
2023-05-13T08:10:33.798Z,1.90
2023-05-13T08:13:02.083Z,1.87
2023-05-13T08:15:29.442Z,2.10
2023-05-13T08:17:58.180Z,2.00
2023-05-13T08:20:29.756Z,1.93
2023-05-13T08:22:59.428Z,2.10
2023-05-13T08:25:26.775Z,1.80
2023-05-13T08:27:54.410Z,1.90
2023-05-13T08:30:21.797Z,2.13
2023-05-13T08:32:49.218Z,2.57
2023-05-13T08:35:17.947Z,2.10
2023-05-13T08:37:45.333Z,2.10
2023-05-13T08:40:13.282Z,2.50
2023-05-13T08:42:41.673Z,2.10
2023-05-13T08:45:09.617Z,2.10
2023-05-13T08:47:41.866Z,2.30
2023-05-13T08:50:10.051Z,2.10
2023-05-13T08:52:38.767Z,2.53
2023-05-13T08:55:06.911Z,2.77
2023-05-13T08:57:34.302Z,2.40
2023-05-13T09:00:01.721Z,2.27
2023-05-13T09:02:29.148Z,2.27
2023-05-13T09:04:56.997Z,2.50
2023-05-13T09:07:24.642Z,2.10
2023-05-13T09:09:53.547Z,2.60
2023-05-13T09:12:39.835Z,2.47
2023-05-13T09:15:09.501Z,2.50
2023-05-13T09:17:38.512Z,2.60
2023-05-13T09:20:08.260Z,2.60
2023-05-13T09:22:35.603Z,3.43
2023-05-13T09:25:04.468Z,2.63
2023-05-13T09:27:37.764Z,2.97
2023-05-13T09:30:06.036Z,2.67
2023-05-13T09:32:33.449Z,2.83
2023-05-13T09:35:09.248Z,2.90
2023-05-13T09:37:36.857Z,2.67
2023-05-13T09:40:06.471Z,2.63
2023-05-13T09:42:34.199Z,2.70
2023-05-13T09:45:05.427Z,2.83
2023-05-13T09:47:32.917Z,2.60
2023-05-13T09:50:02.495Z,3.10
2023-05-13T09:52:30.667Z,3.10
2023-05-13T09:54:58.658Z,2.80
2023-05-13T09:57:29.404Z,2.80
2023-05-13T10:00:01.075Z,3.03
2023-05-13T10:02:28.945Z,2.60
2023-05-13T10:04:57.004Z,2.60
2023-05-13T10:07:25.748Z,2.83
2023-05-13T10:09:54.217Z,3.10
2023-05-13T10:12:22.341Z,3.03
2023-05-13T10:14:52.907Z,2.50
2023-05-13T10:17:21.269Z,2.30
2023-05-13T10:19:50.119Z,2.60
2023-05-13T10:22:21.299Z,2.40
2023-05-13T10:24:49.406Z,2.80
2023-05-13T10:27:16.826Z,2.80
2023-05-13T10:29:44.291Z,2.30
2023-05-13T10:32:13.245Z,2.30
2023-05-13T10:34:40.890Z,2.40
2023-05-13T10:37:19.723Z,2.23
2023-05-13T10:40:01.314Z,2.20
2023-05-13T10:42:38.560Z,1.97
2023-05-13T10:45:06.425Z,2.50
2023-05-13T10:47:36.084Z,2.00
2023-05-13T10:50:05.986Z,2.00
2023-05-13T10:52:43.010Z,2.20
2023-05-13T10:55:15.834Z,2.10
2023-05-13T10:57:43.494Z,1.40
2023-05-13T11:00:15.136Z,1.50
2023-05-13T11:02:44.434Z,2.00
2023-05-13T11:05:19.965Z,2.37
2023-05-13T11:07:55.863Z,2.27
2023-05-13T11:10:28.715Z,2.17
2023-05-13T11:13:16.982Z,1.90
2023-05-13T11:15:44.689Z,2.10
2023-05-13T11:18:13.646Z,1.97
2023-05-13T11:20:51.662Z,2.43
2023-05-13T11:23:20.166Z,1.87
2023-05-13T11:25:47.844Z,1.97
2023-05-13T11:28:15.789Z,2.10
2023-05-13T11:30:53.574Z,1.80
2023-05-13T11:33:22.268Z,1.83
2023-05-13T11:35:57.351Z,2.00
2023-05-13T11:38:25.690Z,2.10
2023-05-13T11:40:56.704Z,1.90
2023-05-13T11:43:24.591Z,2.00
2023-05-13T11:45:53.371Z,1.70
2023-05-13T11:48:23.292Z,1.80
2023-05-13T11:50:50.791Z,1.80
2023-05-13T11:53:22.241Z,2.00
2023-05-13T11:55:49.701Z,2.00
2023-05-13T11:58:17.304Z,2.10
2023-05-13T12:00:46.678Z,1.90
2023-05-13T12:03:16.191Z,1.90
2023-05-13T12:05:45.378Z,2.10
2023-05-13T12:08:12.934Z,4.20
2023-05-13T12:10:43.558Z,2.93
2023-05-13T12:13:11.074Z,3.20
2023-05-13T12:15:38.804Z,2.10
2023-05-13T12:18:06.760Z,1.80
2023-05-13T12:20:34.393Z,2.50
2023-05-13T12:23:04.615Z,2.63
2023-05-13T12:25:39.219Z,1.57
2023-05-13T12:28:19.875Z,2.30
2023-05-13T12:30:51.551Z,1.50
2023-05-13T12:33:19.936Z,1.40
2023-05-13T12:35:48.827Z,1.70
2023-05-13T12:38:19.810Z,1.60
2023-05-13T12:40:47.774Z,2.17
2023-05-13T12:43:16.543Z,1.60
2023-05-13T12:45:45.278Z,2.20
2023-05-13T12:48:12.768Z,1.70
2023-05-13T12:50:40.489Z,1.93
2023-05-13T12:53:07.893Z,1.60
2023-05-13T12:55:39.962Z,1.70
2023-05-13T12:58:10.806Z,1.93
2023-05-13T13:00:39.024Z,2.10
2023-05-13T13:03:07.455Z,2.10
2023-05-13T13:05:35.076Z,2.40
2023-05-13T13:08:05.083Z,2.27
2023-05-13T13:10:32.439Z,2.27
2023-05-13T13:13:01.417Z,2.30
2023-05-13T13:15:28.768Z,1.87
2023-05-13T13:17:56.174Z,2.00
2023-05-13T13:20:23.681Z,2.27
2023-05-13T13:22:51.042Z,1.80
2023-05-13T13:25:18.530Z,2.07
2023-05-13T13:27:46.080Z,2.17
2023-05-13T13:30:15.397Z,2.13
2023-05-13T13:32:42.859Z,2.03
2023-05-13T13:35:10.588Z,2.17
2023-05-13T13:37:38.188Z,2.47
2023-05-13T13:40:06.069Z,2.33
2023-05-13T13:42:43.292Z,2.30
2023-05-13T13:45:12.543Z,2.40
2023-05-13T13:47:41.695Z,1.90
2023-05-13T13:50:09.395Z,1.70
2023-05-13T13:52:36.814Z,1.50
2023-05-13T13:55:04.350Z,1.50
2023-05-13T13:57:32.023Z,1.70
2023-05-13T13:59:59.672Z,1.23
2023-05-13T14:02:27.112Z,1.83
2023-05-13T14:04:56.088Z,1.57
2023-05-13T14:07:23.509Z,1.40
2023-05-13T14:09:52.341Z,1.60
2023-05-13T14:12:19.722Z,1.50
2023-05-13T14:14:47.083Z,1.40
2023-05-13T14:17:14.530Z,1.60
2023-05-13T14:19:42.396Z,1.57
2023-05-13T14:22:11.079Z,1.57
2023-05-13T14:24:38.646Z,1.77
2023-05-13T14:27:06.451Z,1.83
2023-05-13T14:29:34.116Z,1.60
2023-05-13T14:32:01.896Z,1.50
2023-05-13T14:34:29.521Z,1.53
2023-05-13T14:36:58.266Z,1.50
2023-05-13T14:39:26.966Z,1.50
2023-05-13T14:41:54.327Z,1.30
2023-05-13T14:44:21.678Z,1.60
2023-05-13T14:46:49.231Z,1.60
2023-05-13T14:49:16.600Z,1.50
2023-05-13T14:51:43.929Z,1.47
2023-05-13T14:54:11.301Z,1.87
2023-05-13T14:56:41.453Z,1.60
2023-05-13T14:59:09.041Z,1.97
2023-05-13T15:01:36.445Z,1.90
2023-05-13T15:04:03.829Z,1.90
2023-05-13T15:06:31.875Z,2.07
2023-05-13T15:08:59.391Z,2.40
2023-05-13T15:11:27.804Z,1.90
2023-05-13T15:13:56.655Z,2.10
2023-05-13T15:16:24.059Z,2.10
2023-05-13T15:18:51.571Z,2.00
2023-05-13T15:21:19.065Z,2.03
2023-05-13T15:23:46.523Z,2.20
2023-05-13T15:26:13.893Z,1.73
2023-05-13T15:28:41.551Z,1.70
2023-05-13T15:31:10.331Z,2.00
2023-05-13T15:33:37.828Z,1.90
2023-05-13T15:36:06.144Z,2.10
2023-05-13T15:38:33.614Z,1.90
2023-05-13T15:41:03.535Z,2.20
2023-05-13T15:43:31.672Z,2.07
2023-05-13T15:45:59.711Z,2.00
2023-05-13T15:48:28.681Z,1.90
2023-05-13T15:50:56.104Z,1.97
2023-05-13T15:53:23.550Z,2.10
2023-05-13T15:55:50.925Z,2.40
2023-05-13T15:58:19.724Z,2.27
2023-05-13T16:00:48.090Z,2.17
2023-05-13T16:03:16.999Z,2.00
2023-05-13T16:05:47.249Z,1.93
2023-05-13T16:08:14.649Z,2.20
2023-05-13T16:10:42.117Z,2.03
2023-05-13T16:13:09.473Z,2.30
2023-05-13T16:15:36.933Z,2.70
2023-05-13T16:18:04.471Z,2.70
2023-05-13T16:20:32.259Z,2.63
2023-05-13T16:23:03.238Z,2.27
2023-05-13T16:25:30.662Z,2.17
2023-05-13T16:27:58.294Z,2.50
2023-05-13T16:30:25.896Z,2.43
2023-05-13T16:32:54.665Z,2.93
2023-05-13T16:35:22.605Z,2.67
2023-05-13T16:37:50.166Z,2.20
2023-05-13T16:40:19.246Z,2.47
2023-05-13T16:42:47.014Z,2.90
2023-05-13T16:45:14.444Z,2.93
2023-05-13T16:47:41.863Z,3.23
2023-05-13T16:50:11.197Z,2.57
2023-05-13T16:52:38.850Z,2.80
2023-05-13T16:55:06.729Z,2.60
2023-05-13T16:57:35.720Z,2.40
2023-05-13T17:00:03.552Z,2.40
2023-05-13T17:02:31.246Z,2.30
2023-05-13T17:04:58.924Z,2.60
2023-05-13T17:07:26.320Z,2.40
2023-05-13T17:09:53.752Z,2.13
2023-05-13T17:12:21.088Z,2.20
2023-05-13T17:14:49.806Z,2.27
2023-05-13T17:17:17.169Z,2.60
2023-05-13T17:19:44.503Z,2.63
2023-05-13T17:22:11.837Z,2.57
2023-05-13T17:24:39.836Z,2.83
2023-05-13T17:27:07.402Z,3.20
2023-05-13T17:29:34.730Z,2.90
2023-05-13T17:32:03.429Z,2.47
2023-05-13T17:34:30.898Z,2.10
2023-05-13T17:36:58.334Z,2.57
2023-05-13T17:39:25.908Z,2.47
2023-05-13T17:41:53.617Z,2.10
2023-05-13T17:44:21.071Z,2.60
2023-05-13T17:46:48.463Z,2.20
2023-05-13T17:49:17.213Z,2.40
2023-05-13T17:51:44.593Z,2.10
2023-05-13T17:54:11.990Z,2.13
2023-05-13T17:56:39.356Z,2.40
2023-05-13T17:59:07.372Z,2.30
2023-05-13T18:01:34.906Z,3.20
2023-05-13T18:04:03.000Z,2.80
2023-05-13T18:06:31.649Z,2.60
2023-05-13T18:08:58.998Z,2.73
2023-05-13T18:11:26.647Z,3.07
2023-05-13T18:13:54.118Z,3.40
2023-05-13T18:16:21.592Z,3.90
2023-05-13T18:18:49.377Z,3.20
2023-05-13T18:21:16.865Z,2.90
2023-05-13T18:23:46.777Z,2.63
2023-05-13T18:26:14.154Z,2.67
2023-05-13T18:28:42.231Z,2.40
2023-05-13T18:31:10.059Z,2.90
2023-05-13T18:33:37.395Z,2.77
2023-05-13T18:36:06.019Z,3.20
2023-05-13T18:38:33.361Z,4.07
2023-05-13T18:41:03.584Z,4.83
2023-05-13T18:43:30.985Z,4.67
2023-05-13T18:45:59.094Z,5.13
2023-05-13T18:48:28.785Z,4.57
2023-05-13T18:50:56.162Z,4.20
2023-05-13T18:53:26.455Z,4.87
2023-05-13T18:55:53.916Z,3.93
2023-05-13T18:58:22.879Z,4.77
2023-05-13T19:00:50.331Z,4.87
2023-05-13T19:03:17.995Z,5.40
2023-05-13T19:05:46.130Z,5.50
2023-05-13T19:08:13.627Z,4.83
2023-05-13T19:10:41.078Z,4.53
2023-05-13T19:13:08.621Z,3.90
2023-05-13T19:15:37.792Z,4.30
2023-05-13T19:18:06.118Z,4.43
2023-05-13T19:20:34.049Z,4.03
2023-05-13T19:23:01.389Z,3.20
2023-05-13T19:25:28.734Z,3.80
2023-05-13T19:27:56.655Z,3.93
2023-05-13T19:30:24.464Z,4.07
2023-05-13T19:32:53.612Z,3.80
2023-05-13T19:35:21.372Z,3.90
2023-05-13T19:37:48.742Z,4.20
2023-05-13T19:40:16.570Z,4.03
2023-05-13T19:42:43.970Z,4.33
2023-05-13T19:45:11.769Z,4.13
2023-05-13T19:47:39.312Z,4.17
2023-05-13T19:50:08.667Z,4.30
2023-05-13T19:52:36.236Z,4.60
2023-05-13T19:55:04.368Z,4.00
2023-05-13T19:57:31.716Z,4.47
2023-05-13T19:59:59.108Z,4.33
2023-05-13T20:02:26.952Z,4.50
2023-05-13T20:04:54.421Z,4.17
2023-05-13T20:07:25.422Z,3.50
2023-05-13T20:09:52.781Z,4.30
2023-05-13T20:12:20.802Z,4.53
2023-05-13T20:14:48.859Z,4.40
2023-05-13T20:17:17.637Z,4.53
2023-05-13T20:19:47.193Z,3.90
2023-05-13T20:22:14.898Z,4.20
2023-05-13T20:24:43.717Z,3.67
2023-05-13T20:27:11.282Z,3.90
2023-05-13T20:29:39.592Z,3.90
2023-05-13T20:32:07.832Z,3.73
2023-05-13T20:34:36.196Z,3.77
2023-05-13T20:37:03.698Z,3.90
2023-05-13T20:39:31.098Z,3.77
2023-05-13T20:41:59.858Z,3.60
2023-05-13T20:44:27.255Z,4.07
2023-05-13T20:46:54.617Z,4.33
2023-05-13T20:49:21.961Z,3.90
2023-05-13T20:51:49.469Z,4.13
2023-05-13T20:54:16.881Z,3.63
2023-05-13T20:56:44.281Z,3.93
2023-05-13T20:59:12.971Z,4.17
2023-05-13T21:01:40.406Z,3.77
2023-05-13T21:04:09.757Z,4.10
2023-05-13T21:06:37.318Z,3.93
2023-05-13T21:09:04.667Z,3.73
2023-05-13T21:11:32.124Z,3.90
2023-05-13T21:13:59.588Z,3.53
2023-05-13T21:16:28.433Z,3.87
2023-05-13T21:18:55.965Z,4.20
2023-05-13T21:21:23.342Z,4.20
2023-05-13T21:23:50.726Z,4.10
2023-05-13T21:26:18.090Z,3.90
2023-05-13T21:28:45.507Z,3.83
2023-05-13T21:31:12.914Z,4.20
2023-05-13T21:33:41.885Z,4.00
2023-05-13T21:36:09.386Z,4.37
2023-05-13T21:38:36.823Z,3.40
2023-05-13T21:41:04.189Z,3.90
2023-05-13T21:43:31.672Z,4.20
2023-05-13T21:45:59.029Z,3.67
2023-05-13T21:48:26.459Z,4.00
2023-05-13T21:50:55.598Z,4.20
2023-05-13T21:53:22.950Z,4.20
2023-05-13T21:55:51.135Z,4.20
2023-05-13T21:58:18.567Z,4.63
2023-05-13T22:00:46.608Z,4.80
2023-05-13T22:03:14.174Z,4.43
2023-05-13T22:05:44.096Z,4.90
2023-05-13T22:08:12.882Z,4.80
2023-05-13T22:10:40.277Z,4.30
2023-05-13T22:13:07.858Z,5.10
2023-05-13T22:15:35.419Z,4.50
2023-05-13T22:18:02.856Z,4.20
2023-05-13T22:20:30.297Z,3.70
2023-05-13T22:22:57.731Z,3.93
2023-05-13T22:25:26.467Z,3.93
2023-05-13T22:27:54.455Z,3.93
2023-05-13T22:30:22.020Z,4.27
2023-05-13T22:32:50.348Z,4.30
2023-05-13T22:35:17.840Z,3.93
2023-05-13T22:37:45.207Z,3.87
2023-05-13T22:40:13.140Z,3.90
2023-05-13T22:42:41.783Z,3.77
2023-05-13T22:45:09.742Z,3.77
2023-05-13T22:47:37.287Z,3.90
2023-05-13T22:50:04.837Z,3.67
2023-05-13T22:52:32.243Z,4.10
2023-05-13T22:54:59.604Z,4.00
2023-05-13T22:57:27.731Z,3.57
2023-05-13T22:59:56.429Z,3.80
2023-05-13T23:02:24.181Z,4.27
2023-05-13T23:04:51.619Z,4.50
2023-05-13T23:07:19.064Z,3.87
2023-05-13T23:09:46.716Z,4.30
2023-05-13T23:12:14.431Z,3.87
2023-05-13T23:14:41.766Z,3.70
2023-05-13T23:17:10.697Z,3.97
2023-05-13T23:19:38.547Z,3.70
2023-05-13T23:22:06.260Z,4.27
2023-05-13T23:24:33.837Z,4.23
2023-05-13T23:27:01.196Z,4.50
2023-05-13T23:29:28.537Z,4.40
2023-05-13T23:31:56.097Z,4.37
2023-05-13T23:34:24.841Z,4.63
2023-05-13T23:36:52.233Z,4.37
2023-05-13T23:39:19.610Z,4.37
2023-05-13T23:41:46.957Z,4.47
2023-05-13T23:44:14.307Z,4.67
2023-05-13T23:46:41.825Z,4.47
2023-05-13T23:49:09.362Z,4.33
2023-05-13T23:51:38.332Z,4.57
2023-05-13T23:54:05.718Z,4.40
2023-05-13T23:56:33.064Z,4.43
2023-05-13T23:59:00.408Z,4.40
